sensor_id;sensor_type;location;lat;lon;timestamp;temperature;humidity
14670;DHT22;7423;48.722;9.350;2024-01-10T00:02:01;0.60;99.00
14670;DHT22;7423;48.722;9.350;2024-01-10T00:04:29;0.60;99.00
14670;DHT22;7423;48.722;9.350;2024-01-10T00:06:56;0.60;99.00
14670;DHT22;7423;48.722;9.350;2024-01-10T00:09:23;0.60;99.00
14670;DHT22;7423;48.722;9.350;2024-01-10T00:11:50;0.60;99.10
14670;DHT22;7423;48.722;9.350;2024-01-10T00:14:17;0.60;99.10
14670;DHT22;7423;48.722;9.350;2024-01-10T00:16:44;0.70;99.20
14670;DHT22;7423;48.722;9.350;2024-01-10T00:19:11;0.70;99.20
14670;DHT22;7423;48.722;9.350;2024-01-10T00:21:38;0.70;99.20
14670;DHT22;7423;48.722;9.350;2024-01-10T00:24:05;0.70;99.20
14670;DHT22;7423;48.722;9.350;2024-01-10T00:26:31;0.70;99.20
14670;DHT22;7423;48.722;9.350;2024-01-10T00:28:58;0.80;99.40
14670;DHT22;7423;48.722;9.350;2024-01-10T00:31:30;0.80;99.30
14670;DHT22;7423;48.722;9.350;2024-01-10T00:33:58;0.70;99.30
14670;DHT22;7423;48.722;9.350;2024-01-10T00:36:26;0.70;99.20
14670;DHT22;7423;48.722;9.350;2024-01-10T00:38:52;0.70;99.30
14670;DHT22;7423;48.722;9.350;2024-01-10T00:41:19;0.70;99.50
14670;DHT22;7423;48.722;9.350;2024-01-10T00:43:46;1.60;99.90
14670;DHT22;7423;48.722;9.350;2024-01-10T00:46:13;0.80;99.70
14670;DHT22;7423;48.722;9.350;2024-01-10T00:48:40;0.70;99.70
14670;DHT22;7423;48.722;9.350;2024-01-10T00:51:07;0.70;99.80
14670;DHT22;7423;48.722;9.350;2024-01-10T00:53:36;0.80;99.80
14670;DHT22;7423;48.722;9.350;2024-01-10T00:56:06;0.80;99.70
14670;DHT22;7423;48.722;9.350;2024-01-10T00:58:33;0.80;99.50
14670;DHT22;7423;48.722;9.350;2024-01-10T01:01:00;0.90;99.50
14670;DHT22;7423;48.722;9.350;2024-01-10T01:03:27;0.90;99.40
14670;DHT22;7423;48.722;9.350;2024-01-10T01:05:54;0.90;99.30
14670;DHT22;7423;48.722;9.350;2024-01-10T01:08:21;0.90;99.10
14670;DHT22;7423;48.722;9.350;2024-01-10T01:10:48;1.00;99.20
14670;DHT22;7423;48.722;9.350;2024-01-10T01:13:15;0.90;99.20
14670;DHT22;7423;48.722;9.350;2024-01-10T01:15:43;0.90;99.20
14670;DHT22;7423;48.722;9.350;2024-01-10T01:18:10;1.00;99.50
14670;DHT22;7423;48.722;9.350;2024-01-10T01:20:39;1.00;98.80
14670;DHT22;7423;48.722;9.350;2024-01-10T01:23:06;1.00;99.10
14670;DHT22;7423;48.722;9.350;2024-01-10T01:25:33;0.90;99.00
14670;DHT22;7423;48.722;9.350;2024-01-10T01:28:00;0.90;99.00
14670;DHT22;7423;48.722;9.350;2024-01-10T01:30:27;0.90;99.00
14670;DHT22;7423;48.722;9.350;2024-01-10T01:32:54;1.00;99.00
14670;DHT22;7423;48.722;9.350;2024-01-10T01:35:21;1.00;98.90
14670;DHT22;7423;48.722;9.350;2024-01-10T01:37:49;1.00;98.90
14670;DHT22;7423;48.722;9.350;2024-01-10T01:40:18;1.10;99.20
14670;DHT22;7423;48.722;9.350;2024-01-10T01:42:45;1.00;98.80
14670;DHT22;7423;48.722;9.350;2024-01-10T01:45:12;1.00;98.90
14670;DHT22;7423;48.722;9.350;2024-01-10T01:47:40;1.00;98.90
14670;DHT22;7423;48.722;9.350;2024-01-10T01:50:07;1.00;99.00
14670;DHT22;7423;48.722;9.350;2024-01-10T01:52:35;0.90;99.00
14670;DHT22;7423;48.722;9.350;2024-01-10T01:55:03;1.00;99.00
14670;DHT22;7423;48.722;9.350;2024-01-10T01:57:32;1.00;99.00
14670;DHT22;7423;48.722;9.350;2024-01-10T02:02:27;1.00;98.60
14670;DHT22;7423;48.722;9.350;2024-01-10T02:04:56;1.00;98.80
14670;DHT22;7423;48.722;9.350;2024-01-10T02:07:23;1.10;98.80
14670;DHT22;7423;48.722;9.350;2024-01-10T02:09:50;1.10;98.60
14670;DHT22;7423;48.722;9.350;2024-01-10T02:12:17;1.10;98.60
14670;DHT22;7423;48.722;9.350;2024-01-10T02:17:11;1.10;98.50
14670;DHT22;7423;48.722;9.350;2024-01-10T02:19:38;1.10;98.80
14670;DHT22;7423;48.722;9.350;2024-01-10T02:22:05;1.20;98.80
14670;DHT22;7423;48.722;9.350;2024-01-10T02:24:32;1.10;98.70
14670;DHT22;7423;48.722;9.350;2024-01-10T02:26:59;1.10;98.80
14670;DHT22;7423;48.722;9.350;2024-01-10T02:29:26;1.10;98.80
14670;DHT22;7423;48.722;9.350;2024-01-10T02:31:53;1.10;98.80
14670;DHT22;7423;48.722;9.350;2024-01-10T02:34:20;1.10;98.80
14670;DHT22;7423;48.722;9.350;2024-01-10T02:36:47;1.10;98.80
14670;DHT22;7423;48.722;9.350;2024-01-10T02:39:13;1.10;98.80
14670;DHT22;7423;48.722;9.350;2024-01-10T02:41:40;1.00;98.80
14670;DHT22;7423;48.722;9.350;2024-01-10T02:44:07;1.10;98.70
14670;DHT22;7423;48.722;9.350;2024-01-10T02:46:34;1.00;98.70
14670;DHT22;7423;48.722;9.350;2024-01-10T02:49:01;1.00;98.80
14670;DHT22;7423;48.722;9.350;2024-01-10T02:51:28;1.00;99.00
14670;DHT22;7423;48.722;9.350;2024-01-10T02:53:57;1.10;99.20
14670;DHT22;7423;48.722;9.350;2024-01-10T02:56:24;1.00;99.20
14670;DHT22;7423;48.722;9.350;2024-01-10T02:58:51;1.00;99.30
14670;DHT22;7423;48.722;9.350;2024-01-10T03:01:18;1.00;99.40
14670;DHT22;7423;48.722;9.350;2024-01-10T03:03:45;1.10;99.40
14670;DHT22;7423;48.722;9.350;2024-01-10T03:06:12;1.10;99.40
14670;DHT22;7423;48.722;9.350;2024-01-10T03:08:39;1.00;99.20
14670;DHT22;7423;48.722;9.350;2024-01-10T03:11:06;1.10;99.00
14670;DHT22;7423;48.722;9.350;2024-01-10T03:13:33;1.10;98.90
14670;DHT22;7423;48.722;9.350;2024-01-10T03:16:00;1.00;98.80
14670;DHT22;7423;48.722;9.350;2024-01-10T03:18:27;1.10;98.80
14670;DHT22;7423;48.722;9.350;2024-01-10T03:20:54;1.10;98.80
14670;DHT22;7423;48.722;9.350;2024-01-10T03:23:22;1.20;98.80
14670;DHT22;7423;48.722;9.350;2024-01-10T03:25:50;1.20;98.70
14670;DHT22;7423;48.722;9.350;2024-01-10T03:28:17;1.10;98.70
14670;DHT22;7423;48.722;9.350;2024-01-10T03:30:44;1.00;98.60
14670;DHT22;7423;48.722;9.350;2024-01-10T03:33:11;1.10;98.60
14670;DHT22;7423;48.722;9.350;2024-01-10T03:35:38;1.10;98.60
14670;DHT22;7423;48.722;9.350;2024-01-10T03:38:05;1.20;98.70
14670;DHT22;7423;48.722;9.350;2024-01-10T03:40:32;1.20;98.50
14670;DHT22;7423;48.722;9.350;2024-01-10T03:42:59;1.20;98.60
14670;DHT22;7423;48.722;9.350;2024-01-10T03:45:26;1.10;98.70
14670;DHT22;7423;48.722;9.350;2024-01-10T03:47:54;1.20;98.80
14670;DHT22;7423;48.722;9.350;2024-01-10T03:50:21;1.20;98.60
14670;DHT22;7423;48.722;9.350;2024-01-10T03:52:48;1.20;98.50
14670;DHT22;7423;48.722;9.350;2024-01-10T03:55:15;1.20;98.40
14670;DHT22;7423;48.722;9.350;2024-01-10T03:57:42;1.10;98.40
14670;DHT22;7423;48.722;9.350;2024-01-10T04:00:09;1.20;98.60
14670;DHT22;7423;48.722;9.350;2024-01-10T04:02:37;1.10;98.60
14670;DHT22;7423;48.722;9.350;2024-01-10T04:05:07;1.10;98.60
14670;DHT22;7423;48.722;9.350;2024-01-10T04:07:36;1.20;98.60
14670;DHT22;7423;48.722;9.350;2024-01-10T04:10:04;1.20;98.60
14670;DHT22;7423;48.722;9.350;2024-01-10T04:12:33;1.20;98.60
14670;DHT22;7423;48.722;9.350;2024-01-10T04:15:00;1.20;98.60
14670;DHT22;7423;48.722;9.350;2024-01-10T04:17:27;1.20;98.60
14670;DHT22;7423;48.722;9.350;2024-01-10T04:19:54;1.30;98.50
14670;DHT22;7423;48.722;9.350;2024-01-10T04:22:21;1.30;98.50
14670;DHT22;7423;48.722;9.350;2024-01-10T04:24:50;1.30;98.40
14670;DHT22;7423;48.722;9.350;2024-01-10T04:27:17;1.30;98.30
14670;DHT22;7423;48.722;9.350;2024-01-10T04:29:47;1.40;98.20
14670;DHT22;7423;48.722;9.350;2024-01-10T04:32:14;1.40;98.10
14670;DHT22;7423;48.722;9.350;2024-01-10T04:34:41;1.40;98.00
14670;DHT22;7423;48.722;9.350;2024-01-10T04:37:08;1.40;97.80
14670;DHT22;7423;48.722;9.350;2024-01-10T04:39:35;1.40;97.70
14670;DHT22;7423;48.722;9.350;2024-01-10T04:42:02;1.50;97.50
14670;DHT22;7423;48.722;9.350;2024-01-10T04:44:29;1.50;97.40
14670;DHT22;7423;48.722;9.350;2024-01-10T04:46:56;1.60;97.30
14670;DHT22;7423;48.722;9.350;2024-01-10T04:49:23;1.60;97.30
14670;DHT22;7423;48.722;9.350;2024-01-10T04:51:50;1.50;97.20
14670;DHT22;7423;48.722;9.350;2024-01-10T04:54:17;1.50;97.20
14670;DHT22;7423;48.722;9.350;2024-01-10T04:56:44;1.50;97.10
14670;DHT22;7423;48.722;9.350;2024-01-10T04:59:11;1.60;97.10
14670;DHT22;7423;48.722;9.350;2024-01-10T05:01:38;1.60;97.00
14670;DHT22;7423;48.722;9.350;2024-01-10T05:04:05;1.60;97.20
14670;DHT22;7423;48.722;9.350;2024-01-10T05:06:32;1.60;96.80
14670;DHT22;7423;48.722;9.350;2024-01-10T05:08:59;1.60;96.70
14670;DHT22;7423;48.722;9.350;2024-01-10T05:11:27;1.60;96.60
14670;DHT22;7423;48.722;9.350;2024-01-10T05:13:54;1.70;96.60
14670;DHT22;7423;48.722;9.350;2024-01-10T05:16:21;1.60;96.50
14670;DHT22;7423;48.722;9.350;2024-01-10T05:18:48;1.60;96.60
14670;DHT22;7423;48.722;9.350;2024-01-10T05:21:15;1.60;96.50
14670;DHT22;7423;48.722;9.350;2024-01-10T05:23:42;1.60;96.40
14670;DHT22;7423;48.722;9.350;2024-01-10T05:26:09;1.60;96.30
14670;DHT22;7423;48.722;9.350;2024-01-10T05:28:36;1.60;96.20
14670;DHT22;7423;48.722;9.350;2024-01-10T05:31:03;1.60;96.20
14670;DHT22;7423;48.722;9.350;2024-01-10T05:33:30;1.60;96.20
14670;DHT22;7423;48.722;9.350;2024-01-10T05:35:57;1.70;96.20
14670;DHT22;7423;48.722;9.350;2024-01-10T05:38:24;1.70;96.10
14670;DHT22;7423;48.722;9.350;2024-01-10T05:40:51;1.70;96.10
14670;DHT22;7423;48.722;9.350;2024-01-10T05:43:19;1.80;96.10
14670;DHT22;7423;48.722;9.350;2024-01-10T05:45:45;1.80;96.10
14670;DHT22;7423;48.722;9.350;2024-01-10T05:48:13;1.80;96.10
14670;DHT22;7423;48.722;9.350;2024-01-10T05:50:39;1.80;96.00
14670;DHT22;7423;48.722;9.350;2024-01-10T05:53:07;1.80;96.10
14670;DHT22;7423;48.722;9.350;2024-01-10T05:55:35;1.80;96.00
14670;DHT22;7423;48.722;9.350;2024-01-10T05:58:03;1.80;95.90
14670;DHT22;7423;48.722;9.350;2024-01-10T06:00:30;1.80;95.90
14670;DHT22;7423;48.722;9.350;2024-01-10T06:02:57;0.30;95.50
14670;DHT22;7423;48.722;9.350;2024-01-10T06:05:24;1.80;95.90
14670;DHT22;7423;48.722;9.350;2024-01-10T06:07:51;1.80;96.00
14670;DHT22;7423;48.722;9.350;2024-01-10T06:10:19;1.80;96.00
14670;DHT22;7423;48.722;9.350;2024-01-10T06:12:46;1.90;96.00
14670;DHT22;7423;48.722;9.350;2024-01-10T06:15:13;1.90;96.10
14670;DHT22;7423;48.722;9.350;2024-01-10T06:17:40;1.90;96.20
14670;DHT22;7423;48.722;9.350;2024-01-10T06:20:07;1.90;96.20
14670;DHT22;7423;48.722;9.350;2024-01-10T06:22:35;1.90;96.70
14670;DHT22;7423;48.722;9.350;2024-01-10T06:25:03;1.90;96.20
14670;DHT22;7423;48.722;9.350;2024-01-10T06:27:31;1.90;96.20
14670;DHT22;7423;48.722;9.350;2024-01-10T06:29:57;1.80;96.20
14670;DHT22;7423;48.722;9.350;2024-01-10T06:32:24;1.80;96.10
14670;DHT22;7423;48.722;9.350;2024-01-10T06:34:52;1.80;96.10
14670;DHT22;7423;48.722;9.350;2024-01-10T06:37:19;1.90;96.10
14670;DHT22;7423;48.722;9.350;2024-01-10T06:39:46;1.90;96.20
14670;DHT22;7423;48.722;9.350;2024-01-10T06:42:13;1.80;96.20
14670;DHT22;7423;48.722;9.350;2024-01-10T06:44:40;1.80;96.10
14670;DHT22;7423;48.722;9.350;2024-01-10T06:47:07;1.90;96.10
14670;DHT22;7423;48.722;9.350;2024-01-10T06:49:34;1.90;96.10
14670;DHT22;7423;48.722;9.350;2024-01-10T06:52:01;1.90;96.10
14670;DHT22;7423;48.722;9.350;2024-01-10T06:54:28;1.90;96.10
14670;DHT22;7423;48.722;9.350;2024-01-10T06:56:55;1.90;96.10
14670;DHT22;7423;48.722;9.350;2024-01-10T06:59:22;1.90;96.10
14670;DHT22;7423;48.722;9.350;2024-01-10T07:01:53;1.90;96.00
14670;DHT22;7423;48.722;9.350;2024-01-10T07:04:22;1.80;96.10
14670;DHT22;7423;48.722;9.350;2024-01-10T07:06:51;1.80;96.20
14670;DHT22;7423;48.722;9.350;2024-01-10T07:09:18;1.80;96.20
14670;DHT22;7423;48.722;9.350;2024-01-10T07:11:47;1.80;96.20
14670;DHT22;7423;48.722;9.350;2024-01-10T07:14:15;2.10;96.10
14670;DHT22;7423;48.722;9.350;2024-01-10T07:16:42;2.20;95.70
14670;DHT22;7423;48.722;9.350;2024-01-10T07:19:12;2.10;95.70
14670;DHT22;7423;48.722;9.350;2024-01-10T07:21:40;2.10;95.60
14670;DHT22;7423;48.722;9.350;2024-01-10T07:24:08;2.00;95.90
14670;DHT22;7423;48.722;9.350;2024-01-10T07:26:36;1.90;95.90
14670;DHT22;7423;48.722;9.350;2024-01-10T07:29:04;1.70;96.20
14670;DHT22;7423;48.722;9.350;2024-01-10T07:31:35;1.50;96.20
14670;DHT22;7423;48.722;9.350;2024-01-10T07:34:02;1.40;96.60
14670;DHT22;7423;48.722;9.350;2024-01-10T07:36:33;1.30;96.90
14670;DHT22;7423;48.722;9.350;2024-01-10T07:39:00;1.20;97.00
14670;DHT22;7423;48.722;9.350;2024-01-10T07:41:30;1.20;97.20
14670;DHT22;7423;48.722;9.350;2024-01-10T07:43:57;1.20;97.30
14670;DHT22;7423;48.722;9.350;2024-01-10T07:46:24;1.30;97.30
14670;DHT22;7423;48.722;9.350;2024-01-10T07:48:53;1.30;97.20
14670;DHT22;7423;48.722;9.350;2024-01-10T07:51:20;1.30;97.20
14670;DHT22;7423;48.722;9.350;2024-01-10T07:53:48;1.30;97.20
14670;DHT22;7423;48.722;9.350;2024-01-10T07:56:15;1.40;97.10
14670;DHT22;7423;48.722;9.350;2024-01-10T07:58:43;1.40;96.90
14670;DHT22;7423;48.722;9.350;2024-01-10T08:01:10;1.50;97.00
14670;DHT22;7423;48.722;9.350;2024-01-10T08:03:38;1.50;97.00
14670;DHT22;7423;48.722;9.350;2024-01-10T08:06:06;1.50;97.10
14670;DHT22;7423;48.722;9.350;2024-01-10T08:08:45;1.60;97.10
14670;DHT22;7423;48.722;9.350;2024-01-10T08:11:12;1.60;97.10
14670;DHT22;7423;48.722;9.350;2024-01-10T08:13:40;1.60;97.10
14670;DHT22;7423;48.722;9.350;2024-01-10T08:16:07;1.70;97.00
14670;DHT22;7423;48.722;9.350;2024-01-10T08:18:35;1.60;97.00
14670;DHT22;7423;48.722;9.350;2024-01-10T08:21:02;1.60;97.10
14670;DHT22;7423;48.722;9.350;2024-01-10T08:23:31;1.60;97.10
14670;DHT22;7423;48.722;9.350;2024-01-10T08:25:57;1.60;97.20
14670;DHT22;7423;48.722;9.350;2024-01-10T08:28:24;1.70;97.20
14670;DHT22;7423;48.722;9.350;2024-01-10T08:30:53;1.80;97.30
14670;DHT22;7423;48.722;9.350;2024-01-10T08:33:29;1.70;97.20
14670;DHT22;7423;48.722;9.350;2024-01-10T08:35:58;1.80;97.30
14670;DHT22;7423;48.722;9.350;2024-01-10T08:38:25;1.90;97.30
14670;DHT22;7423;48.722;9.350;2024-01-10T08:40:53;2.10;97.40
14670;DHT22;7423;48.722;9.350;2024-01-10T08:43:20;2.00;97.20
14670;DHT22;7423;48.722;9.350;2024-01-10T08:45:46;2.10;97.20
14670;DHT22;7423;48.722;9.350;2024-01-10T08:48:13;2.20;97.20
14670;DHT22;7423;48.722;9.350;2024-01-10T08:50:40;2.10;97.30
14670;DHT22;7423;48.722;9.350;2024-01-10T08:53:08;2.10;97.50
14670;DHT22;7423;48.722;9.350;2024-01-10T08:55:36;2.20;97.40
14670;DHT22;7423;48.722;9.350;2024-01-10T08:58:03;2.30;97.00
14670;DHT22;7423;48.722;9.350;2024-01-10T09:00:31;2.40;97.10
14670;DHT22;7423;48.722;9.350;2024-01-10T09:02:58;2.30;97.10
14670;DHT22;7423;48.722;9.350;2024-01-10T09:05:25;2.20;97.30
14670;DHT22;7423;48.722;9.350;2024-01-10T09:07:52;2.20;97.20
14670;DHT22;7423;48.722;9.350;2024-01-10T09:10:21;2.20;97.30
14670;DHT22;7423;48.722;9.350;2024-01-10T09:12:49;2.20;97.50
14670;DHT22;7423;48.722;9.350;2024-01-10T09:15:16;2.40;97.20
14670;DHT22;7423;48.722;9.350;2024-01-10T09:17:44;2.40;97.20
14670;DHT22;7423;48.722;9.350;2024-01-10T09:20:12;2.50;97.00
14670;DHT22;7423;48.722;9.350;2024-01-10T09:22:39;2.40;97.00
14670;DHT22;7423;48.722;9.350;2024-01-10T09:25:07;2.30;97.20
14670;DHT22;7423;48.722;9.350;2024-01-10T09:27:35;2.30;97.20
14670;DHT22;7423;48.722;9.350;2024-01-10T09:30:02;2.40;97.50
14670;DHT22;7423;48.722;9.350;2024-01-10T09:32:30;2.60;96.70
14670;DHT22;7423;48.722;9.350;2024-01-10T09:34:57;2.60;96.50
14670;DHT22;7423;48.722;9.350;2024-01-10T09:37:25;2.50;96.80
14670;DHT22;7423;48.722;9.350;2024-01-10T09:39:52;2.40;97.00
14670;DHT22;7423;48.722;9.350;2024-01-10T09:42:20;2.40;96.90
14670;DHT22;7423;48.722;9.350;2024-01-10T09:44:51;2.40;97.00
14670;DHT22;7423;48.722;9.350;2024-01-10T09:47:20;2.50;96.90
14670;DHT22;7423;48.722;9.350;2024-01-10T09:49:47;2.50;96.70
14670;DHT22;7423;48.722;9.350;2024-01-10T09:52:26;2.50;96.80
14670;DHT22;7423;48.722;9.350;2024-01-10T09:54:56;2.40;96.90
14670;DHT22;7423;48.722;9.350;2024-01-10T09:57:24;2.40;96.90
14670;DHT22;7423;48.722;9.350;2024-01-10T09:59:53;2.40;96.70
14670;DHT22;7423;48.722;9.350;2024-01-10T10:02:23;2.60;96.70
14670;DHT22;7423;48.722;9.350;2024-01-10T10:05:03;2.80;96.40
14670;DHT22;7423;48.722;9.350;2024-01-10T10:07:31;2.90;96.10
14670;DHT22;7423;48.722;9.350;2024-01-10T10:09:58;2.90;96.00
14670;DHT22;7423;48.722;9.350;2024-01-10T10:12:51;2.70;96.20
14670;DHT22;7423;48.722;9.350;2024-01-10T10:15:23;2.70;96.40
14670;DHT22;7423;48.722;9.350;2024-01-10T10:17:54;2.80;96.00
14670;DHT22;7423;48.722;9.350;2024-01-10T10:20:28;2.80;96.00
14670;DHT22;7423;48.722;9.350;2024-01-10T10:23:08;2.80;96.00
14670;DHT22;7423;48.722;9.350;2024-01-10T10:25:44;2.80;96.20
14670;DHT22;7423;48.722;9.350;2024-01-10T10:28:12;2.80;96.30
14670;DHT22;7423;48.722;9.350;2024-01-10T10:30:55;2.90;96.20
14670;DHT22;7423;48.722;9.350;2024-01-10T10:33:22;3.10;96.10
14670;DHT22;7423;48.722;9.350;2024-01-10T10:35:50;3.00;96.20
14670;DHT22;7423;48.722;9.350;2024-01-10T10:38:22;3.00;96.40
14670;DHT22;7423;48.722;9.350;2024-01-10T10:40:49;3.00;96.50
14670;DHT22;7423;48.722;9.350;2024-01-10T10:43:18;3.00;96.50
14670;DHT22;7423;48.722;9.350;2024-01-10T10:45:49;3.00;96.60
14670;DHT22;7423;48.722;9.350;2024-01-10T10:48:18;3.00;96.50
14670;DHT22;7423;48.722;9.350;2024-01-10T10:51:13;3.20;96.30
14670;DHT22;7423;48.722;9.350;2024-01-10T10:53:43;3.20;96.30
14670;DHT22;7423;48.722;9.350;2024-01-10T10:56:13;3.40;96.10
14670;DHT22;7423;48.722;9.350;2024-01-10T10:58:42;3.40;96.00
14670;DHT22;7423;48.722;9.350;2024-01-10T11:01:14;4.60;96.20
14670;DHT22;7423;48.722;9.350;2024-01-10T11:03:41;3.40;95.90
14670;DHT22;7423;48.722;9.350;2024-01-10T11:06:14;3.40;96.00
14670;DHT22;7423;48.722;9.350;2024-01-10T11:09:00;3.40;95.90
14670;DHT22;7423;48.722;9.350;2024-01-10T11:15:00;3.30;96.30
14670;DHT22;7423;48.722;9.350;2024-01-10T11:17:44;3.40;96.00
14670;DHT22;7423;48.722;9.350;2024-01-10T11:23:48;3.40;96.20
14670;DHT22;7423;48.722;9.350;2024-01-10T11:26:16;3.40;96.30
14670;DHT22;7423;48.722;9.350;2024-01-10T11:28:43;3.30;96.30
14670;DHT22;7423;48.722;9.350;2024-01-10T11:31:13;3.40;96.50
14670;DHT22;7423;48.722;9.350;2024-01-10T11:33:42;3.40;96.50
14670;DHT22;7423;48.722;9.350;2024-01-10T11:36:17;3.60;96.50
14670;DHT22;7423;48.722;9.350;2024-01-10T11:38:49;3.60;96.40
14670;DHT22;7423;48.722;9.350;2024-01-10T11:41:34;3.70;96.10
14670;DHT22;7423;48.722;9.350;2024-01-10T11:46:53;3.80;96.10
14670;DHT22;7423;48.722;9.350;2024-01-10T11:49:22;3.90;95.60
14670;DHT22;7423;48.722;9.350;2024-01-10T11:51:55;3.90;95.80
14670;DHT22;7423;48.722;9.350;2024-01-10T11:54:43;3.90;96.00
14670;DHT22;7423;48.722;9.350;2024-01-10T11:57:13;4.00;96.00
14670;DHT22;7423;48.722;9.350;2024-01-10T11:59:42;4.10;96.10
14670;DHT22;7423;48.722;9.350;2024-01-10T12:02:12;4.20;95.70
14670;DHT22;7423;48.722;9.350;2024-01-10T12:04:41;4.20;95.80
14670;DHT22;7423;48.722;9.350;2024-01-10T12:07:15;4.20;96.20
14670;DHT22;7423;48.722;9.350;2024-01-10T12:09:46;4.20;96.00
14670;DHT22;7423;48.722;9.350;2024-01-10T12:12:13;4.30;96.10
14670;DHT22;7423;48.722;9.350;2024-01-10T12:14:41;4.30;96.00
14670;DHT22;7423;48.722;9.350;2024-01-10T12:17:10;4.30;96.20
14670;DHT22;7423;48.722;9.350;2024-01-10T12:19:37;4.30;96.20
14670;DHT22;7423;48.722;9.350;2024-01-10T12:22:05;4.40;96.20
14670;DHT22;7423;48.722;9.350;2024-01-10T12:24:42;4.40;96.10
14670;DHT22;7423;48.722;9.350;2024-01-10T12:27:11;4.40;96.00
14670;DHT22;7423;48.722;9.350;2024-01-10T12:29:38;4.40;96.00
14670;DHT22;7423;48.722;9.350;2024-01-10T12:32:07;4.40;96.40
14670;DHT22;7423;48.722;9.350;2024-01-10T12:34:39;4.40;96.10
14670;DHT22;7423;48.722;9.350;2024-01-10T12:37:06;4.50;96.20
14670;DHT22;7423;48.722;9.350;2024-01-10T12:39:33;4.50;96.10
14670;DHT22;7423;48.722;9.350;2024-01-10T12:42:01;4.60;96.10
14670;DHT22;7423;48.722;9.350;2024-01-10T12:44:30;4.60;96.00
14670;DHT22;7423;48.722;9.350;2024-01-10T12:46:57;4.80;95.90
14670;DHT22;7423;48.722;9.350;2024-01-10T12:49:24;4.70;96.00
14670;DHT22;7423;48.722;9.350;2024-01-10T12:51:51;4.80;96.00
14670;DHT22;7423;48.722;9.350;2024-01-10T12:54:18;4.80;96.00
14670;DHT22;7423;48.722;9.350;2024-01-10T12:56:45;4.80;96.00
14670;DHT22;7423;48.722;9.350;2024-01-10T12:59:13;4.80;96.00
14670;DHT22;7423;48.722;9.350;2024-01-10T13:01:40;5.00;95.90
14670;DHT22;7423;48.722;9.350;2024-01-10T13:04:09;6.00;96.00
14670;DHT22;7423;48.722;9.350;2024-01-10T13:06:37;5.10;95.80
14670;DHT22;7423;48.722;9.350;2024-01-10T13:09:04;5.00;95.90
14670;DHT22;7423;48.722;9.350;2024-01-10T13:11:33;5.10;95.80
14670;DHT22;7423;48.722;9.350;2024-01-10T13:14:00;5.10;95.90
14670;DHT22;7423;48.722;9.350;2024-01-10T13:16:27;5.00;96.00
14670;DHT22;7423;48.722;9.350;2024-01-10T13:18:54;5.10;96.10
14670;DHT22;7423;48.722;9.350;2024-01-10T13:21:23;5.00;96.10
14670;DHT22;7423;48.722;9.350;2024-01-10T13:23:51;5.00;96.00
14670;DHT22;7423;48.722;9.350;2024-01-10T13:26:18;5.10;95.90
14670;DHT22;7423;48.722;9.350;2024-01-10T13:28:45;5.20;95.90
14670;DHT22;7423;48.722;9.350;2024-01-10T13:31:12;5.10;96.10
14670;DHT22;7423;48.722;9.350;2024-01-10T13:33:39;5.10;96.00
14670;DHT22;7423;48.722;9.350;2024-01-10T13:36:13;5.20;95.90
14670;DHT22;7423;48.722;9.350;2024-01-10T13:38:41;5.20;95.80
14670;DHT22;7423;48.722;9.350;2024-01-10T13:41:08;5.20;95.60
14670;DHT22;7423;48.722;9.350;2024-01-10T13:43:35;5.20;95.70
14670;DHT22;7423;48.722;9.350;2024-01-10T13:46:02;5.30;95.80
14670;DHT22;7423;48.722;9.350;2024-01-10T13:48:35;5.30;95.90
14670;DHT22;7423;48.722;9.350;2024-01-10T13:51:02;5.30;96.10
14670;DHT22;7423;48.722;9.350;2024-01-10T13:53:29;5.30;96.00
14670;DHT22;7423;48.722;9.350;2024-01-10T13:55:56;5.30;96.10
14670;DHT22;7423;48.722;9.350;2024-01-10T13:58:23;5.40;96.10
14670;DHT22;7423;48.722;9.350;2024-01-10T14:00:51;5.40;96.00
14670;DHT22;7423;48.722;9.350;2024-01-10T14:03:18;5.40;96.10
14670;DHT22;7423;48.722;9.350;2024-01-10T14:05:45;5.50;96.10
14670;DHT22;7423;48.722;9.350;2024-01-10T14:08:13;5.50;96.00
14670;DHT22;7423;48.722;9.350;2024-01-10T14:10:40;5.50;95.90
14670;DHT22;7423;48.722;9.350;2024-01-10T14:13:09;5.50;95.80
14670;DHT22;7423;48.722;9.350;2024-01-10T14:15:36;5.60;96.00
14670;DHT22;7423;48.722;9.350;2024-01-10T14:18:03;5.50;96.10
14670;DHT22;7423;48.722;9.350;2024-01-10T14:20:30;5.50;96.10
14670;DHT22;7423;48.722;9.350;2024-01-10T14:22:57;5.50;96.10
14670;DHT22;7423;48.722;9.350;2024-01-10T14:25:26;5.60;96.10
14670;DHT22;7423;48.722;9.350;2024-01-10T14:27:54;5.70;96.00
14670;DHT22;7423;48.722;9.350;2024-01-10T14:30:20;5.70;96.00
14670;DHT22;7423;48.722;9.350;2024-01-10T14:32:48;5.70;96.00
14670;DHT22;7423;48.722;9.350;2024-01-10T14:35:16;5.60;96.10
14670;DHT22;7423;48.722;9.350;2024-01-10T14:37:43;5.60;96.10
14670;DHT22;7423;48.722;9.350;2024-01-10T14:40:12;5.70;96.10
14670;DHT22;7423;48.722;9.350;2024-01-10T14:42:39;5.60;96.00
14670;DHT22;7423;48.722;9.350;2024-01-10T14:45:06;5.60;96.10
14670;DHT22;7423;48.722;9.350;2024-01-10T14:47:34;5.70;96.10
14670;DHT22;7423;48.722;9.350;2024-01-10T14:50:02;5.70;96.20
14670;DHT22;7423;48.722;9.350;2024-01-10T14:52:30;5.70;96.10
14670;DHT22;7423;48.722;9.350;2024-01-10T14:54:57;5.70;96.10
14670;DHT22;7423;48.722;9.350;2024-01-10T14:57:24;5.70;96.10
14670;DHT22;7423;48.722;9.350;2024-01-10T14:59:50;5.70;96.00
14670;DHT22;7423;48.722;9.350;2024-01-10T15:02:18;5.70;96.30
14670;DHT22;7423;48.722;9.350;2024-01-10T15:04:46;5.70;96.20
14670;DHT22;7423;48.722;9.350;2024-01-10T15:07:14;5.60;96.70
14670;DHT22;7423;48.722;9.350;2024-01-10T15:09:43;5.60;96.90
14670;DHT22;7423;48.722;9.350;2024-01-10T15:12:10;5.60;96.90
14670;DHT22;7423;48.722;9.350;2024-01-10T15:14:38;5.60;96.80
14670;DHT22;7423;48.722;9.350;2024-01-10T15:17:07;5.70;96.60
14670;DHT22;7423;48.722;9.350;2024-01-10T15:19:39;5.60;96.70
14670;DHT22;7423;48.722;9.350;2024-01-10T15:22:06;5.50;96.80
14670;DHT22;7423;48.722;9.350;2024-01-10T15:24:35;5.40;96.90
14670;DHT22;7423;48.722;9.350;2024-01-10T15:27:01;5.30;97.00
14670;DHT22;7423;48.722;9.350;2024-01-10T15:29:34;5.30;97.20
14670;DHT22;7423;48.722;9.350;2024-01-10T15:32:01;5.30;97.30
14670;DHT22;7423;48.722;9.350;2024-01-10T15:34:28;5.30;97.20
14670;DHT22;7423;48.722;9.350;2024-01-10T15:36:56;5.20;97.10
14670;DHT22;7423;48.722;9.350;2024-01-10T15:39:22;5.20;97.10
14670;DHT22;7423;48.722;9.350;2024-01-10T15:41:51;5.10;97.20
14670;DHT22;7423;48.722;9.350;2024-01-10T15:44:18;5.20;97.50
14670;DHT22;7423;48.722;9.350;2024-01-10T15:46:47;5.20;97.70
14670;DHT22;7423;48.722;9.350;2024-01-10T15:49:14;5.10;97.80
14670;DHT22;7423;48.722;9.350;2024-01-10T15:51:41;5.10;97.90
14670;DHT22;7423;48.722;9.350;2024-01-10T15:54:09;5.10;97.90
14670;DHT22;7423;48.722;9.350;2024-01-10T15:56:36;5.10;97.90
14670;DHT22;7423;48.722;9.350;2024-01-10T15:59:07;5.00;97.90
14670;DHT22;7423;48.722;9.350;2024-01-10T16:01:35;5.00;98.00
14670;DHT22;7423;48.722;9.350;2024-01-10T16:04:02;5.00;98.10
14670;DHT22;7423;48.722;9.350;2024-01-10T16:06:31;5.00;98.20
14670;DHT22;7423;48.722;9.350;2024-01-10T16:09:00;4.90;98.30
14670;DHT22;7423;48.722;9.350;2024-01-10T16:11:27;4.90;98.40
14670;DHT22;7423;48.722;9.350;2024-01-10T16:13:55;4.80;98.60
14670;DHT22;7423;48.722;9.350;2024-01-10T16:16:26;4.80;98.70
14670;DHT22;7423;48.722;9.350;2024-01-10T16:18:57;4.80;98.70
14670;DHT22;7423;48.722;9.350;2024-01-10T16:21:25;4.80;98.80
14670;DHT22;7423;48.722;9.350;2024-01-10T16:23:52;4.70;98.70